Crosby, ND

12:42 AM CDT on October 18, 2017 (GMT -0500)
Crosby

Weather History for KD50 - November, 2012

Change the Weather History Date:

Thursday, November 1, 2012

  Actual Average (KISN) Record (KISN)
Temperature  
Mean Temperature 28 °F -  
Max Temperature 32 °F 46 °F 72 °F (1983)
Min Temperature 24 °F 26 °F -6 °F (1984)
Degree Days  
Heating Degree Days 37    
Moisture  
Dew Point 25 °F    
Average Humidity 89    
Maximum Humidity 100    
Minimum Humidity 75    
Precipitation  
Precipitation 0.00 in - - ()
Sea Level Pressure  
Sea Level Pressure 30.06 in    
Wind  
Wind Speed 12 mph (East)    
Max Wind Speed 20 mph    
Max Gust Speed 24 mph    
Visibility 10 miles    
Events      
Averages and records for this station are not official NWS values.
T = Trace of Precipitation, MM = Missing Value Source: NWS Daily Summary

Daily Weather History Graph

Daily Weather History Graph

Search for Another Location

Airport or City:

Trip Planner

Search our weather history database for the weather conditions in past years. The results will help you decide how hot, cold, wet, or windy it might be!

Date:

Astronomy

Nov. 01, 2012 Rise Set
Actual Time 8:41 AM CDT 6:31 PM CDT
Civil Twilight 8:07 AM CDT 7:04 PM CDT
Nautical Twilight 7:30 AM CDT 7:42 PM CDT
Astronomical Twilight 6:53 AM CDT 8:18 PM CDT
Moon 8:19 PM CDT (11/1) 11:26 AM CDT (11/1)
Length of Visible Light 10h 56m
Length of Day
9h 50m
Waning Gibbous, 93% of the Moon is Illuminated
Nov 1
Waning Gibbous
Nov 6
Last Quarter
Nov 13
New
Nov 20
First Quarter
Nov 28
Full

Hourly Weather History & Observations

Time (CDT) Temp. Windchill Dew Point Humidity Pressure Visibility Wind Dir Wind Speed Gust Speed Precip Events Conditions
12:15 AM 28.4 °F 22.2 °F 24.8 °F 86% 30.16 in 10.0 mi NE 5.8 mph - N/A   Overcast
12:35 AM 28.4 °F 21.2 °F 24.8 °F 86% 30.16 in 10.0 mi NE 6.9 mph - N/A   Mostly Cloudy
12:55 AM 26.6 °F 18.2 °F 24.8 °F 93% 30.15 in 10.0 mi NE 8.1 mph - N/A   Mostly Cloudy
1:15 AM 28.4 °F 20.4 °F 24.8 °F 86% 30.14 in 10.0 mi NE 8.1 mph - N/A   Overcast
1:35 AM 28.4 °F 19.7 °F 24.8 °F 86% 30.15 in 10.0 mi ENE 9.2 mph - N/A   Overcast
1:55 AM 26.6 °F 18.2 °F 24.8 °F 93% 30.15 in 10.0 mi ENE 8.1 mph - N/A   Overcast
2:15 AM 26.6 °F 16.2 °F 24.8 °F 93% 30.15 in 10.0 mi ENE 11.5 mph - N/A   Overcast
2:35 AM 26.6 °F 16.8 °F 24.8 °F 93% 30.14 in 10.0 mi East 10.4 mph - N/A   Overcast
3:15 AM 26.6 °F 16.8 °F 24.8 °F 93% 30.13 in 10.0 mi East 10.4 mph - N/A   Overcast
3:35 AM 26.6 °F 16.8 °F 24.8 °F 93% 30.14 in 10.0 mi East 10.4 mph - N/A   Overcast
3:55 AM 26.6 °F 17.5 °F 24.8 °F 93% 30.14 in 10.0 mi East 9.2 mph - N/A   Overcast
4:15 AM 26.6 °F 16.2 °F 24.8 °F 93% 30.13 in 10.0 mi East 11.5 mph - N/A   Overcast
4:35 AM 26.6 °F 15.7 °F 24.8 °F 93% 30.13 in 10.0 mi East 12.7 mph - N/A   Overcast
4:55 AM 24.8 °F 14.0 °F 23.0 °F 93% 30.13 in 10.0 mi East 11.5 mph - N/A   Overcast
5:15 AM 24.8 °F 14.0 °F 23.0 °F 93% 30.12 in 10.0 mi East 11.5 mph - N/A   Mostly Cloudy
5:35 AM 24.8 °F 14.0 °F 23.0 °F 93% 30.12 in 10.0 mi East 11.5 mph - N/A   Partly Cloudy
5:55 AM 24.8 °F 15.3 °F 23.0 °F 93% 30.12 in 10.0 mi East 9.2 mph - N/A   Clear
6:15 AM 24.8 °F 14.6 °F 23.0 °F 93% 30.11 in 10.0 mi East 10.4 mph - N/A   Clear
6:35 AM 24.8 °F 14.0 °F 23.0 °F 93% 30.12 in 10.0 mi East 11.5 mph - N/A   Mostly Cloudy
6:55 AM 24.8 °F 14.0 °F 23.0 °F 93% 30.12 in 10.0 mi East 11.5 mph - N/A   Overcast
7:15 AM 24.8 °F 13.4 °F 23.0 °F 93% 30.10 in 10.0 mi East 12.7 mph - N/A   Overcast
7:35 AM 24.8 °F 14.0 °F 23.0 °F 93% 30.11 in 10.0 mi East 11.5 mph - N/A   Overcast
7:55 AM 24.8 °F 14.6 °F 23.0 °F 93% 30.10 in 10.0 mi ESE 10.4 mph - N/A   Overcast
8:35 AM 24.8 °F 11.9 °F 24.8 °F 100% 30.09 in 10.0 mi ESE 16.1 mph 20.7 mph N/A   Overcast
8:55 AM 24.8 °F 12.4 °F 24.8 °F 100% 30.08 in 10.0 mi East 15.0 mph - N/A   Overcast
9:15 AM 26.6 °F 15.2 °F 24.8 °F 93% 30.07 in 10.0 mi East 13.8 mph - N/A   Overcast
9:35 AM 26.6 °F 13.1 °F 24.8 °F 93% 30.08 in 10.0 mi ESE 19.6 mph - N/A   Overcast
9:55 AM 26.6 °F 13.1 °F 24.8 °F 93% 30.08 in 10.0 mi ESE 19.6 mph - N/A   Overcast
10:15 AM 26.6 °F 13.8 °F 24.8 °F 93% 30.08 in 10.0 mi East 17.3 mph 23.0 mph N/A   Overcast
10:35 AM 26.6 °F 14.3 °F 24.8 °F 93% 30.07 in 10.0 mi East 16.1 mph - N/A   Overcast
10:55 AM 26.6 °F 13.8 °F 26.6 °F 100% 30.07 in 10.0 mi East 17.3 mph - N/A   Overcast
11:15 AM 28.4 °F 16.2 °F 26.6 °F 93% 30.06 in 10.0 mi East 17.3 mph 21.9 mph N/A   Overcast
11:35 AM 28.4 °F 16.2 °F 26.6 °F 93% 30.06 in 10.0 mi ESE 17.3 mph 24.2 mph N/A   Overcast
11:55 AM 28.4 °F 16.2 °F 26.6 °F 93% 30.06 in 10.0 mi ESE 17.3 mph 24.2 mph N/A   Overcast
12:15 PM 28.4 °F 17.0 °F 26.6 °F 93% 30.07 in 10.0 mi ESE 15.0 mph 20.7 mph N/A   Overcast
12:35 PM 30.2 °F 18.5 °F 26.6 °F 86% 30.06 in 10.0 mi ESE 17.3 mph 21.9 mph N/A   Overcast
1:15 PM 32.0 °F 21.6 °F 28.4 °F 87% 30.05 in 10.0 mi ESE 15.0 mph 19.6 mph N/A   Overcast
1:35 PM 32.0 °F 20.8 °F 28.4 °F 87% 30.03 in 10.0 mi ESE 17.3 mph 21.9 mph N/A   Overcast
1:55 PM 32.0 °F 21.6 °F 28.4 °F 87% 30.02 in 10.0 mi ESE 15.0 mph 23.0 mph N/A   Overcast
2:15 PM 32.0 °F 20.5 °F 26.6 °F 80% 30.01 in 10.0 mi ESE 18.4 mph 24.2 mph N/A   Overcast
2:35 PM 32.0 °F 20.5 °F 26.6 °F 80% 30.00 in 10.0 mi ESE 18.4 mph 24.2 mph N/A   Overcast
2:55 PM 32.0 °F 20.1 °F 28.4 °F 87% 29.99 in 10.0 mi ESE 19.6 mph 23.0 mph N/A   Overcast
3:15 PM 32.0 °F 20.1 °F 26.6 °F 80% 29.98 in 10.0 mi East 19.6 mph 24.2 mph N/A   Overcast
3:55 PM 32.0 °F 20.5 °F 26.6 °F 80% 29.99 in 10.0 mi East 18.4 mph - N/A   Overcast
4:15 PM 32.0 °F 20.5 °F 24.8 °F 75% 29.99 in 10.0 mi ESE 18.4 mph 24.2 mph N/A   Mostly Cloudy
4:35 PM 32.0 °F 21.6 °F 24.8 °F 75% 29.99 in 10.0 mi East 15.0 mph - N/A   Mostly Cloudy
4:55 PM 30.2 °F 18.5 °F 24.8 °F 80% 30.00 in 10.0 mi East 17.3 mph - N/A   Mostly Cloudy
5:15 PM 28.4 °F 16.6 °F 24.8 °F 86% 30.00 in 10.0 mi East 16.1 mph 23.0 mph N/A   Scattered Clouds
5:35 PM 28.4 °F 15.8 °F 24.8 °F 86% 30.01 in 10.0 mi East 18.4 mph 21.9 mph N/A   Partly Cloudy
5:55 PM 28.4 °F 15.8 °F 24.8 °F 86% 30.00 in 10.0 mi East 18.4 mph 21.9 mph N/A   Partly Cloudy
6:15 PM 28.4 °F 17.0 °F 24.8 °F 86% 29.99 in 10.0 mi East 15.0 mph - N/A   Scattered Clouds
6:35 PM 26.6 °F 15.7 °F 24.8 °F 93% 29.99 in 10.0 mi East 12.7 mph 23.0 mph N/A   Partly Cloudy
6:55 PM 26.6 °F 14.7 °F 24.8 °F 93% 30.00 in 10.0 mi East 15.0 mph - N/A   Partly Cloudy
7:15 PM 26.6 °F 16.2 °F 24.8 °F 93% 30.01 in 10.0 mi East 11.5 mph - N/A   Mostly Cloudy
7:35 PM 26.6 °F 16.2 °F 24.8 °F 93% 30.01 in 10.0 mi East 11.5 mph - N/A   Mostly Cloudy
7:55 PM 26.6 °F 16.2 °F 24.8 °F 93% 30.02 in 10.0 mi ESE 11.5 mph - N/A   Overcast
8:15 PM 26.6 °F 16.8 °F 23.0 °F 86% 30.03 in 10.0 mi ESE 10.4 mph - N/A   Overcast
8:35 PM 26.6 °F 16.8 °F 23.0 °F 86% 30.03 in 10.0 mi ESE 10.4 mph - N/A   Overcast
8:55 PM 26.6 °F 16.8 °F 24.8 °F 93% 30.03 in 10.0 mi East 10.4 mph - N/A   Overcast
9:15 PM 26.6 °F 16.8 °F 23.0 °F 86% 30.02 in 10.0 mi ESE 10.4 mph - N/A   Overcast
9:35 PM 26.6 °F 16.8 °F 23.0 °F 86% 30.02 in 10.0 mi East 10.4 mph - N/A   Overcast
9:55 PM 26.6 °F 15.7 °F 23.0 °F 86% 30.01 in 10.0 mi ESE 12.7 mph - N/A   Overcast
10:15 PM 26.6 °F 15.7 °F 23.0 °F 86% 30.00 in 10.0 mi ESE 12.7 mph - N/A   Overcast
10:35 PM 26.6 °F 14.3 °F 23.0 °F 86% 30.00 in 10.0 mi ESE 16.1 mph 19.6 mph N/A   Overcast
10:55 PM 26.6 °F 14.7 °F 23.0 °F 86% 30.00 in 10.0 mi ESE 15.0 mph 18.4 mph N/A   Overcast
11:15 PM 28.4 °F 15.8 °F 23.0 °F 80% 30.00 in 10.0 mi ESE 18.4 mph - N/A   Overcast
11:35 PM 28.4 °F 17.5 °F 23.0 °F 80% 30.00 in 10.0 mi ESE 13.8 mph 20.7 mph N/A   Overcast
11:55 PM 28.4 °F 17.0 °F 23.0 °F 80% 30.00 in 10.0 mi ESE 15.0 mph - N/A   Overcast